Time;durP1;ratioP1;P1;durP2;ratioP2;P2;SDS_P1;SDS_P2;PMS_P1;PMS_P2;Temp;Humidity;BMP_temperature;BMP_pressure;BME280_temperature;BME280_humidity;BME280_pressure;Samples;Min_cycle;Max_cycle;Signal;HPM_P1;HPM_P2
2021/09/19 00:01:48;;;;;;;42.60;30.58;;;15.60;90.40;;;;;;5071172;28;20129;-68
2021/09/19 00:04:15;;;;;;;43.80;31.55;;;15.50;90.00;;;;;;5053052;28;20078;-64
2021/09/19 00:06:42;;;;;;;44.38;31.92;;;15.50;90.40;;;;;;5069844;28;20048;-64
2021/09/19 00:09:09;;;;;;;41.95;29.23;;;15.50;90.30;;;;;;5070737;28;20059;-64
2021/09/19 00:11:36;;;;;;;33.10;25.10;;;15.40;90.30;;;;;;5070520;28;20076;-64
2021/09/19 00:14:03;;;;;;;31.13;23.98;;;15.40;90.60;;;;;;5070003;28;20044;-64
2021/09/19 00:16:30;;;;;;;28.80;22.73;;;15.30;90.60;;;;;;5069147;28;20390;-65
2021/09/19 00:18:57;;;;;;;27.92;21.08;;;15.30;90.70;;;;;;5060045;28;20049;-65
2021/09/19 00:21:24;;;;;;;25.58;19.45;;;15.30;90.90;;;;;;5070605;28;20048;-63
2021/09/19 00:23:51;;;;;;;26.65;19.83;;;15.20;91.10;;;;;;5070333;28;20052;-64
2021/09/19 00:26:18;;;;;;;27.63;19.83;;;15.20;91.00;;;;;;5055415;28;20133;-63
2021/09/19 00:28:45;;;;;;;23.33;18.80;;;15.20;91.10;;;;;;5086462;28;20395;-63
2021/09/19 00:31:12;;;;;;;23.83;18.08;;;15.10;91.20;;;;;;5079440;28;20043;-65
2021/09/19 00:33:39;;;;;;;23.20;17.35;;;15.10;91.10;;;;;;5090156;28;20052;-64
2021/09/19 00:36:06;;;;;;;22.25;17.05;;;15.00;91.10;;;;;;5045854;28;20144;-63
2021/09/19 00:38:33;;;;;;;21.02;16.45;;;15.10;91.20;;;;;;5058097;28;20048;-64
2021/09/19 00:41:00;;;;;;;18.35;15.95;;;15.10;91.40;;;;;;5058529;28;20051;-63
2021/09/19 00:43:27;;;;;;;20.63;16.30;;;15.10;91.30;;;;;;5063094;28;20098;-63
2021/09/19 00:45:54;;;;;;;21.58;17.00;;;15.10;91.40;;;;;;5052677;28;20438;-64
2021/09/19 00:48:21;;;;;;;20.52;16.85;;;15.10;91.30;;;;;;5052782;28;20383;-64
2021/09/19 00:50:48;;;;;;;21.98;17.75;;;15.20;91.40;;;;;;5069232;28;20044;-65
2021/09/19 00:53:15;;;;;;;20.88;17.25;;;15.20;91.40;;;;;;5070165;28;20067;-64
2021/09/19 00:55:43;;;;;;;21.13;16.38;;;15.20;91.50;;;;;;5063361;28;20408;-64
2021/09/19 00:58:11;;;;;;;22.00;17.10;;;15.20;91.40;;;;;;5069736;28;20045;-63
2021/09/19 01:00:39;;;;;;;21.60;16.60;;;15.20;91.50;;;;;;5066456;28;20055;-64
2021/09/19 01:03:06;;;;;;;17.50;15.65;;;15.30;91.40;;;;;;5069224;28;20147;-63
2021/09/19 01:05:33;;;;;;;19.02;15.75;;;15.30;91.50;;;;;;5055060;28;20048;-63
2021/09/19 01:08:03;;;;;;;20.95;15.77;;;15.30;91.30;;;;;;5068970;28;20040;-64
2021/09/19 01:10:30;;;;;;;21.05;15.60;;;15.30;91.30;;;;;;5056320;28;20044;-63
2021/09/19 01:20:43;;;;;;;18.50;16.40;;;15.30;91.70;;;;;;5069233;28;20308;-64
2021/09/19 01:23:11;;;;;;;19.85;16.65;;;15.30;91.30;;;;;;5069030;28;20510;-64
2021/09/19 01:25:39;;;;;;;16.60;14.80;;;15.30;91.60;;;;;;5057900;28;20511;-64
2021/09/19 01:28:06;;;;;;;17.75;15.57;;;15.30;91.40;;;;;;5056420;28;20048;-64
2021/09/19 01:30:32;;;;;;;18.77;16.67;;;15.30;91.20;;;;;;5068713;28;20375;-64
2021/09/19 01:33:04;;;;;;;19.60;17.45;;;15.30;91.50;;;;;;5068202;28;20480;-63
2021/09/19 01:35:31;;;;;;;22.83;17.80;;;15.20;91.60;;;;;;5068659;28;20545;-63
2021/09/19 01:37:58;;;;;;;19.52;16.15;;;15.20;91.50;;;;;;5058072;28;20260;-64
2021/09/19 01:40:26;;;;;;;23.23;17.55;;;15.10;91.20;;;;;;5062488;28;20402;-64
2021/09/19 01:42:53;;;;;;;24.70;20.80;;;15.10;91.90;;;;;;5035944;28;20097;-64
2021/09/19 01:45:20;;;;;;;21.77;18.15;;;15.10;92.20;;;;;;5068876;28;20044;-63
2021/09/19 01:47:47;;;;;;;25.42;22.10;;;15.10;92.00;;;;;;5058248;28;20056;-65
2021/09/19 01:50:14;;;;;;;25.42;20.05;;;15.10;92.20;;;;;;5060981;28;20040;-63
2021/09/19 01:52:41;;;;;;;20.70;18.50;;;15.00;92.00;;;;;;5052103;28;20041;-63
2021/09/19 01:55:08;;;;;;;25.00;20.67;;;15.00;91.80;;;;;;5073421;28;20055;-64
2021/09/19 01:57:35;;;;;;;28.17;21.95;;;15.00;92.10;;;;;;5072515;28;20517;-64
2021/09/19 02:00:03;;;;;;;25.08;19.65;;;15.00;92.10;;;;;;5069832;28;20132;-63
2021/09/19 02:02:33;;;;;;;24.73;20.45;;;15.00;92.20;;;;;;5049807;28;20055;-63
2021/09/19 02:05:00;;;;;;;23.23;19.48;;;15.00;92.10;;;;;;5073295;28;20125;-64
2021/09/19 02:07:30;;;;;;;26.08;21.85;;;15.00;92.10;;;;;;5065734;28;20498;-64
2021/09/19 02:09:58;;;;;;;27.38;21.10;;;15.00;92.20;;;;;;5062563;28;20120;-64
2021/09/19 02:12:24;;;;;;;29.98;22.15;;;15.00;92.20;;;;;;5073096;28;20049;-64
2021/09/19 02:14:51;;;;;;;33.78;22.48;;;15.00;92.10;;;;;;5072512;28;20064;-64
2021/09/19 02:17:19;;;;;;;33.88;25.75;;;14.90;92.20;;;;;;5056467;28;20052;-67
2021/09/19 02:19:46;;;;;;;32.67;25.85;;;14.90;92.10;;;;;;5063724;28;20044;-63
2021/09/19 02:22:13;;;;;;;32.13;26.55;;;14.90;92.20;;;;;;5064637;28;20063;-68
2021/09/19 02:24:40;;;;;;;33.33;25.38;;;14.90;92.30;;;;;;5038027;28;20052;-66
2021/09/19 02:27:07;;;;;;;33.53;25.17;;;14.80;92.20;;;;;;5054597;28;20072;-64
2021/09/19 02:29:34;;;;;;;36.78;24.35;;;14.80;92.20;;;;;;5056679;28;20114;-65
2021/09/19 02:32:01;;;;;;;32.42;24.98;;;14.70;92.30;;;;;;5067035;28;20484;-66
2021/09/19 02:34:31;;;;;;;33.35;26.95;;;14.70;92.60;;;;;;5057890;28;20084;-64
2021/09/19 02:36:58;;;;;;;;;;;14.70;92.50;;;;;;5040229;28;20124;-68
2021/09/19 02:39:25;;;;;;;57.08;46.25;;;14.60;92.30;;;;;;5064620;28;19921;-64
2021/09/19 02:41:53;;;;;;;48.88;37.92;;;14.60;92.70;;;;;;5066352;28;20071;-65
2021/09/19 02:44:27;;;;;;;38.88;30.95;;;14.60;92.70;;;;;;5059913;28;20044;-64
2021/09/19 02:46:54;;;;;;;99.78;84.75;;;14.60;92.80;;;;;;5072257;28;20124;-67
2021/09/19 02:49:21;;;;;;;79.20;61.13;;;14.60;92.80;;;;;;5046520;28;20131;-67
2021/09/19 02:51:48;;;;;;;53.10;43.63;;;14.50;92.90;;;;;;5085184;28;20060;-66
2021/09/19 02:54:15;;;;;;;56.75;44.35;;;14.50;92.60;;;;;;5057785;28;20044;-66
2021/09/19 02:56:42;;;;;;;50.75;39.42;;;14.40;92.60;;;;;;5060292;28;20044;-66
2021/09/19 02:59:09;;;;;;;39.88;28.75;;;14.40;92.50;;;;;;5067713;28;20051;-66
2021/09/19 03:01:39;;;;;;;30.52;24.98;;;14.30;92.70;;;;;;5050266;28;20132;-67
2021/09/19 03:04:06;;;;;;;29.25;24.10;;;14.30;92.70;;;;;;5069130;28;20571;-66
2021/09/19 03:06:33;;;;;;;25.77;22.90;;;14.20;92.80;;;;;;5072035;28;20060;-66
2021/09/19 03:09:00;;;;;;;32.40;22.52;;;14.20;92.80;;;;;;5072548;28;20101;-67
2021/09/19 03:11:27;;;;;;;29.77;22.98;;;14.10;92.80;;;;;;5072765;28;20056;-67
2021/09/19 03:13:56;;;;;;;27.80;23.00;;;14.10;92.80;;;;;;5074358;28;20400;-66
2021/09/19 03:16:23;;;;;;;25.88;21.92;;;14.00;92.80;;;;;;5067261;28;20115;-66
2021/09/19 03:18:50;;;;;;;28.38;23.63;;;14.00;92.80;;;;;;5072270;28;20049;-67
2021/09/19 03:21:17;;;;;;;27.38;22.83;;;14.00;92.80;;;;;;5056041;28;20052;-67
2021/09/19 03:23:44;;;;;;;24.95;22.15;;;13.90;92.80;;;;;;5037459;28;20381;-67
2021/09/19 03:26:11;;;;;;;29.05;24.05;;;13.90;92.80;;;;;;5054987;28;20052;-67
2021/09/19 03:28:38;;;;;;;27.10;21.52;;;13.80;93.10;;;;;;5076823;28;20052;-67
2021/09/19 03:31:05;;;;;;;25.45;21.25;;;13.80;92.80;;;;;;5047210;28;20085;-66
2021/09/19 03:33:32;;;;;;;27.05;23.52;;;13.80;92.90;;;;;;5045993;28;20131;-67
2021/09/19 03:36:03;;;;;;;32.72;25.67;;;13.70;93.10;;;;;;5053682;28;20050;-66
2021/09/19 03:38:30;;;;;;;34.97;25.33;;;13.70;93.20;;;;;;5059196;28;20146;-67
2021/09/19 03:40:57;;;;;;;31.27;25.35;;;13.70;93.30;;;;;;5067610;28;20047;-67
2021/09/19 03:43:24;;;;;;;29.23;24.80;;;13.70;92.90;;;;;;5065483;28;20044;-67
2021/09/19 03:45:51;;;;;;;32.83;25.17;;;13.60;93.10;;;;;;5081893;28;20391;-67
2021/09/19 03:48:19;;;;;;;30.33;24.27;;;13.60;93.10;;;;;;5067129;28;20473;-67
2021/09/19 03:50:46;;;;;;;28.13;23.13;;;13.60;93.40;;;;;;5025957;28;20592;-67
2021/09/19 03:53:16;;;;;;;27.42;21.80;;;13.60;93.50;;;;;;5057427;28;20389;-67
2021/09/19 03:55:44;;;;;;;28.63;22.00;;;13.50;93.20;;;;;;5063088;28;20051;-67
2021/09/19 03:58:11;;;;;;;23.55;20.70;;;13.50;93.30;;;;;;5080060;28;20512;-66
2021/09/19 04:00:38;;;;;;;25.05;22.30;;;13.50;93.60;;;;;;5083163;28;20131;-68
2021/09/19 04:03:07;;;;;;;25.42;21.10;;;13.60;93.50;;;;;;5068927;28;20052;-67
2021/09/19 04:05:36;;;;;;;22.90;19.13;;;13.60;93.30;;;;;;5061224;28;20132;-67
2021/09/19 04:08:04;;;;;;;24.47;20.87;;;13.70;93.20;;;;;;5045629;28;20473;-67
2021/09/19 04:10:37;;;;;;;25.13;21.77;;;13.70;93.60;;;;;;5069667;28;20126;-67
2021/09/19 04:13:04;;;;;;;24.45;21.15;;;13.80;93.40;;;;;;5083776;28;20047;-67
2021/09/19 04:15:31;;;;;;;26.55;23.33;;;13.80;93.50;;;;;;5052834;28;20131;-67
2021/09/19 04:17:58;;;;;;;26.30;21.40;;;13.80;93.50;;;;;;5058371;28;20159;-67
2021/09/19 04:20:28;;;;;;;29.20;22.40;;;13.90;93.60;;;;;;5061572;28;20055;-67
2021/09/19 04:22:55;;;;;;;27.23;21.38;;;13.90;93.50;;;;;;5038504;28;20129;-67
2021/09/19 04:25:22;;;;;;;24.17;21.13;;;13.90;93.70;;;;;;5072327;28;20054;-66
2021/09/19 04:27:49;;;;;;;27.48;22.17;;;13.90;93.70;;;;;;5046607;28;20109;-66
2021/09/19 04:30:16;;;;;;;23.55;19.95;;;13.90;93.50;;;;;;5033220;28;20107;-67
2021/09/19 04:32:44;;;;;;;23.17;20.40;;;13.90;93.20;;;;;;5019777;28;20455;-67
2021/09/19 04:35:11;;;;;;;23.48;20.23;;;14.00;93.40;;;;;;5022016;28;20458;-67
2021/09/19 04:37:38;;;;;;;23.00;20.33;;;13.90;93.20;;;;;;5038810;28;20110;-67
2021/09/19 04:40:06;;;;;;;25.20;20.50;;;13.90;93.40;;;;;;5032616;28;20067;-66
2021/09/19 04:42:34;;;;;;;24.85;20.08;;;13.90;93.40;;;;;;5018237;28;20049;-66
2021/09/19 04:45:00;;;;;;;28.35;21.38;;;13.90;93.30;;;;;;5012489;28;20405;-67
2021/09/19 04:47:27;;;;;;;26.77;22.10;;;13.80;93.30;;;;;;5016632;28;20470;-66
2021/09/19 04:49:55;;;;;;;23.52;20.98;;;13.80;93.40;;;;;;5036082;28;20460;-66
2021/09/19 04:52:26;;;;;;;26.85;20.88;;;13.80;93.60;;;;;;5032442;28;20046;-67
2021/09/19 04:54:53;;;;;;;20.98;18.42;;;13.80;93.80;;;;;;5012878;28;20056;-66
2021/09/19 04:57:23;;;;;;;23.65;19.73;;;13.80;93.50;;;;;;5036579;28;20046;-67
2021/09/19 04:59:50;;;;;;;19.88;17.63;;;13.80;93.60;;;;;;5033771;28;20071;-66
2021/09/19 05:02:17;;;;;;;22.67;18.55;;;13.80;93.60;;;;;;5033589;28;20045;-68
2021/09/19 05:04:44;;;;;;;23.65;18.85;;;13.80;93.80;;;;;;5021295;28;20040;-67
2021/09/19 05:07:11;;;;;;;21.83;18.58;;;13.80;93.70;;;;;;5029330;28;20505;-66
2021/09/19 05:09:40;;;;;;;23.83;19.10;;;13.70;94.00;;;;;;5036282;28;20049;-67
2021/09/19 05:12:07;;;;;;;24.23;20.95;;;13.70;94.00;;;;;;5036078;28;20045;-67
2021/09/19 05:14:34;;;;;;;22.45;19.20;;;13.80;94.00;;;;;;5029457;28;20092;-67
2021/09/19 05:17:02;;;;;;;24.50;19.83;;;13.80;93.90;;;;;;5029889;28;20041;-67
2021/09/19 05:19:28;;;;;;;25.88;20.08;;;13.80;94.10;;;;;;5027994;28;20401;-67
2021/09/19 05:21:55;;;;;;;28.55;21.42;;;13.80;94.10;;;;;;5029993;28;20048;-68
2021/09/19 05:24:23;;;;;;;23.55;19.52;;;13.90;94.10;;;;;;5029488;28;20068;-68
2021/09/19 05:26:50;;;;;;;27.10;21.80;;;13.90;94.20;;;;;;5041444;28;20464;-67
2021/09/19 05:29:17;;;;;;;23.10;19.67;;;13.90;94.30;;;;;;5015803;28;20094;-68
2021/09/19 05:31:44;;;;;;;24.63;19.50;;;14.00;94.10;;;;;;5044413;28;20049;-68
2021/09/19 05:34:11;;;;;;;22.70;19.85;;;14.00;94.20;;;;;;5033483;28;20060;-68
2021/09/19 05:36:38;;;;;;;25.48;21.67;;;14.00;93.90;;;;;;5036195;28;20176;-68
2021/09/19 05:39:05;;;;;;;24.02;21.10;;;14.10;94.20;;;;;;5033638;28;20126;-68
2021/09/19 05:41:33;;;;;;;23.08;20.65;;;14.10;94.20;;;;;;5030252;28;20148;-67
2021/09/19 05:44:01;;;;;;;22.42;19.75;;;14.10;94.10;;;;;;5020837;28;20053;-68
2021/09/19 05:46:28;;;;;;;22.55;19.58;;;14.10;94.20;;;;;;5032169;28;20045;-68
2021/09/19 05:48:55;;;;;;;22.13;18.60;;;14.10;94.20;;;;;;5032872;28;20041;-67
2021/09/19 05:51:22;;;;;;;22.80;19.30;;;14.10;94.10;;;;;;5042243;28;20131;-68
2021/09/19 05:53:49;;;;;;;22.77;19.65;;;14.10;94.10;;;;;;5037832;28;20135;-68
2021/09/19 05:56:19;;;;;;;24.63;19.48;;;14.10;94.20;;;;;;5032130;28;20156;-68
2021/09/19 05:58:45;;;;;;;27.20;21.50;;;14.10;94.10;;;;;;5032412;28;20041;-67
2021/09/19 06:01:13;;;;;;;23.05;20.15;;;14.20;94.10;;;;;;5040741;28;20522;-68
2021/09/19 06:03:41;;;;;;;23.48;20.40;;;14.20;94.10;;;;;;5016595;28;20047;-68
2021/09/19 06:06:08;;;;;;;25.00;20.27;;;14.20;94.20;;;;;;5034601;28;20069;-67
2021/09/19 06:08:35;;;;;;;27.45;19.98;;;14.20;94.20;;;;;;5036968;28;20094;-67
2021/09/19 06:11:02;;;;;;;23.35;18.67;;;14.20;94.20;;;;;;5033504;28;20402;-69
2021/09/19 06:13:29;;;;;;;24.52;19.92;;;14.30;94.00;;;;;;5029520;28;20045;-66
2021/09/19 06:15:56;;;;;;;23.45;19.02;;;14.30;93.90;;;;;;5033458;28;20545;-67
2021/09/19 06:18:23;;;;;;;24.83;19.13;;;14.30;93.90;;;;;;5048734;28;20128;-67
2021/09/19 06:20:50;;;;;;;23.27;20.83;;;14.30;93.90;;;;;;5037437;28;20177;-67
2021/09/19 06:23:17;;;;;;;23.95;20.45;;;14.40;93.90;;;;;;5043134;28;20457;-67
2021/09/19 06:25:44;;;;;;;26.90;20.27;;;14.40;93.90;;;;;;5018309;28;20493;-67
2021/09/19 06:28:12;;;;;;;21.20;18.48;;;14.40;93.90;;;;;;5024945;28;20354;-67
2021/09/19 06:30:39;;;;;;;22.15;19.75;;;14.40;93.90;;;;;;5074185;28;20517;-67
2021/09/19 06:33:06;;;;;;;23.27;19.17;;;14.40;93.80;;;;;;5042028;28;20404;-67
2021/09/19 06:35:33;;;;;;;23.83;20.20;;;14.40;93.90;;;;;;5054594;28;20502;-67
2021/09/19 06:38:00;;;;;;;22.77;19.48;;;14.40;93.90;;;;;;5071954;28;20123;-67
2021/09/19 06:40:27;;;;;;;20.13;17.98;;;14.50;93.70;;;;;;5044420;28;20127;-68
2021/09/19 06:42:54;;;;;;;23.17;19.55;;;14.50;93.60;;;;;;5058631;28;20146;-68
2021/09/19 06:45:21;;;;;;;25.95;20.95;;;14.60;93.60;;;;;;5073558;28;20141;-68
2021/09/19 06:47:48;;;;;;;28.25;22.52;;;14.60;93.70;;;;;;5070061;28;20063;-68
2021/09/19 06:50:15;;;;;;;23.67;21.05;;;14.60;93.50;;;;;;5073026;28;20044;-68
2021/09/19 06:52:42;;;;;;;23.23;20.73;;;14.60;93.50;;;;;;5049175;28;20460;-68
2021/09/19 06:55:10;;;;;;;27.02;22.00;;;14.70;93.50;;;;;;5062926;28;20123;-67
2021/09/19 06:57:37;;;;;;;27.73;22.55;;;14.70;93.50;;;;;;5037448;28;20056;-68
2021/09/19 07:00:05;;;;;;;25.00;21.48;;;14.70;93.60;;;;;;5046226;28;20129;-68
2021/09/19 07:02:32;;;;;;;28.75;23.90;;;14.80;93.50;;;;;;5048906;28;20047;-68
2021/09/19 07:05:02;;;;;;;24.75;21.42;;;14.80;93.60;;;;;;5065413;28;20157;-68
2021/09/19 07:07:29;;;;;;;26.45;22.02;;;14.80;93.60;;;;;;5064560;28;20138;-67
2021/09/19 07:09:56;;;;;;;24.58;20.80;;;14.90;93.60;;;;;;5063520;28;20055;-67
2021/09/19 07:12:23;;;;;;;23.13;20.65;;;14.90;93.50;;;;;;5071198;28;20408;-67
2021/09/19 07:14:50;;;;;;;23.25;20.65;;;14.90;93.60;;;;;;5068401;28;20123;-67
2021/09/19 07:17:18;;;;;;;25.30;21.05;;;15.00;93.60;;;;;;5061692;28;20117;-67
2021/09/19 07:19:45;;;;;;;27.17;21.67;;;15.00;93.30;;;;;;5076697;28;20076;-66
2021/09/19 07:22:12;;;;;;;26.30;23.40;;;15.10;93.70;;;;;;5059371;28;20054;-66
2021/09/19 07:24:39;;;;;;;29.38;23.77;;;15.10;93.70;;;;;;5057312;28;20411;-67
2021/09/19 07:27:06;;;;;;;28.40;23.30;;;15.10;93.40;;;;;;5064865;28;20048;-67
2021/09/19 07:29:34;;;;;;;27.67;22.08;;;15.20;93.10;;;;;;5045794;28;20506;-67
2021/09/19 07:32:01;;;;;;;29.05;22.35;;;15.20;93.10;;;;;;5065645;28;20051;-67
2021/09/19 07:34:29;;;;;;;26.42;22.27;;;15.20;93.20;;;;;;5045118;28;20449;-67
2021/09/19 07:36:56;;;;;;;30.70;23.98;;;15.30;93.00;;;;;;5059636;28;20120;-67
2021/09/19 07:39:23;;;;;;;28.38;23.55;;;15.40;93.20;;;;;;5053168;28;20132;-67
2021/09/19 07:41:53;;;;;;;31.60;25.55;;;15.40;93.20;;;;;;5059826;28;20171;-67
2021/09/19 07:44:20;;;;;;;;;;;15.50;92.80;;;;;;5063174;28;20048;-67
2021/09/19 07:46:49;;;;;;;23.35;20.83;;;15.60;92.50;;;;;;5063035;28;19927;-67
2021/09/19 07:49:17;;;;;;;27.67;23.15;;;15.70;92.40;;;;;;5061009;28;20127;-67
2021/09/19 07:51:44;;;;;;;27.95;23.88;;;15.70;92.20;;;;;;5061611;28;20068;-67
2021/09/19 07:54:12;;;;;;;26.13;21.98;;;15.80;92.20;;;;;;5062107;28;20082;-67
2021/09/19 07:56:39;;;;;;;31.95;24.30;;;15.90;92.20;;;;;;5056412;28;20531;-67
2021/09/19 07:59:06;;;;;;;31.35;24.08;;;16.00;92.40;;;;;;5080274;28;20142;-67
2021/09/19 08:01:33;;;;;;;29.67;24.70;;;16.10;92.40;;;;;;5067170;28;20085;-67
2021/09/19 08:04:00;;;;;;;26.77;23.63;;;16.20;92.50;;;;;;5049136;28;20052;-67
2021/09/19 08:06:27;;;;;;;26.90;24.13;;;16.30;92.20;;;;;;5061937;28;20044;-67
2021/09/19 08:08:54;;;;;;;34.08;25.50;;;16.40;92.10;;;;;;5037521;28;20123;-67
2021/09/19 08:11:21;;;;;;;29.60;26.33;;;16.50;91.80;;;;;;5047264;28;20059;-67
2021/09/19 08:13:48;;;;;;;30.67;25.33;;;16.60;91.60;;;;;;5063387;28;20131;-67
2021/09/19 08:16:16;;;;;;;32.80;26.40;;;16.60;91.60;;;;;;5054971;28;20047;-68
2021/09/19 08:18:43;;;;;;;27.80;24.83;;;16.70;91.70;;;;;;5056172;28;20059;-67
2021/09/19 08:21:10;;;;;;;27.67;23.27;;;16.90;91.50;;;;;;5056920;28;20051;-66
2021/09/19 08:23:37;;;;;;;26.40;23.73;;;17.00;91.30;;;;;;5066984;28;20127;-67
2021/09/19 08:26:04;;;;;;;30.38;22.17;;;17.10;91.10;;;;;;5076664;28;20048;-68
2021/09/19 08:28:31;;;;;;;28.23;24.10;;;17.20;91.00;;;;;;5050504;28;20049;-68
2021/09/19 08:30:58;;;;;;;26.85;23.60;;;17.30;91.20;;;;;;5067666;28;20063;-68
2021/09/19 08:33:27;;;;;;;26.67;23.58;;;17.40;90.70;;;;;;5073066;28;20100;-67
2021/09/19 08:35:55;;;;;;;27.77;23.38;;;17.50;90.60;;;;;;5065192;28;20143;-68
2021/09/19 08:38:23;;;;;;;27.23;23.63;;;17.60;90.40;;;;;;5052172;28;20045;-68
2021/09/19 08:40:50;;;;;;;30.13;24.98;;;17.70;89.90;;;;;;5071402;28;20044;-67
2021/09/19 08:43:17;;;;;;;29.02;25.88;;;17.70;88.50;;;;;;5036890;28;20052;-67
2021/09/19 08:45:48;;;;;;;33.47;27.85;;;17.80;88.20;;;;;;5021017;28;20109;-68
2021/09/19 08:48:17;;;;;;;31.05;27.27;;;17.80;87.50;;;;;;5057869;28;20151;-68
2021/09/19 08:50:51;;;;;;;402.10;359.23;;;17.90;88.50;;;;;;5085572;28;20131;-74
2021/09/19 08:53:19;;;;;;;56.03;50.03;;;17.90;87.90;;;;;;5065693;28;20068;-68
2021/09/19 08:55:47;;;;;;;38.08;33.92;;;17.90;88.60;;;;;;5053756;28;20091;-67
2021/09/19 08:58:14;;;;;;;30.05;26.98;;;18.00;88.40;;;;;;5050074;28;20444;-67
2021/09/19 09:00:44;;;;;;;32.75;28.77;;;18.10;87.90;;;;;;5051805;28;20094;-67
2021/09/19 09:03:12;;;;;;;38.53;27.27;;;18.10;87.40;;;;;;5054697;28;20083;-67
2021/09/19 09:05:39;;;;;;;32.63;27.80;;;18.20;87.40;;;;;;5036841;28;20053;-67
2021/09/19 09:08:07;;;;;;;34.47;29.75;;;18.20;86.60;;;;;;5051803;28;20056;-67
2021/09/19 09:10:37;;;;;;;33.58;30.02;;;18.30;87.20;;;;;;5069890;28;20075;-67
2021/09/19 09:13:06;;;;;;;34.10;30.35;;;18.30;87.10;;;;;;5049319;28;20045;-68
2021/09/19 09:15:34;;;;;;;;;;;18.40;87.10;;;;;;5054022;28;20123;-67
2021/09/19 09:18:04;;;;;;;33.28;29.58;;;18.40;86.90;;;;;;5042909;28;19942;-68
2021/09/19 09:20:51;;;;;;;37.53;30.08;;;18.40;87.00;;;;;;5079020;28;20123;-67
2021/09/19 09:23:28;;;;;;;36.10;28.65;;;18.40;86.60;;;;;;5046959;28;20048;-67
2021/09/19 09:26:19;;;;;;;37.78;30.52;;;18.40;86.50;;;;;;5068942;28;20141;-68
2021/09/19 09:29:02;;;;;;;36.90;29.85;;;18.30;87.60;;;;;;5081265;28;20082;-67
2021/09/19 09:31:32;;;;;;;33.00;29.25;;;18.30;86.60;;;;;;5054745;28;20412;-68
2021/09/19 09:34:09;;;;;;;36.58;31.77;;;18.20;86.20;;;;;;5078797;28;20243;-67
2021/09/19 09:36:57;;;;;;;34.95;31.02;;;18.20;86.80;;;;;;5063074;28;20418;-68
2021/09/19 09:39:39;;;;;;;58.78;50.10;;;18.20;86.30;;;;;;5056257;28;20529;-67
2021/09/19 09:42:17;;;;;;;72.25;61.50;;;18.20;86.10;;;;;;5056496;28;20080;-67
2021/09/19 09:44:52;;;;;;;61.03;52.20;;;18.20;87.00;;;;;;5037911;28;20056;-67
2021/09/19 09:47:23;;;;;;;39.47;34.67;;;18.20;86.40;;;;;;5062980;28;20052;-67
2021/09/19 09:49:52;;;;;;;41.10;33.70;;;18.20;86.60;;;;;;5069380;28;20344;-68
2021/09/19 09:52:23;;;;;;;38.10;32.93;;;18.30;86.50;;;;;;5043783;28;20056;-68
2021/09/19 09:54:56;;;;;;;40.85;35.30;;;18.30;87.10;;;;;;5071277;28;20072;-67
2021/09/19 09:57:35;;;;;;;40.67;34.35;;;18.40;86.30;;;;;;5045693;28;20532;-67
2021/09/19 10:00:11;;;;;;;44.30;33.97;;;18.40;86.70;;;;;;5050381;28;20057;-67
2021/09/19 10:02:40;;;;;;;39.80;33.80;;;18.50;86.20;;;;;;5076938;28;20067;-68
2021/09/19 10:05:09;;;;;;;37.40;32.55;;;18.60;86.00;;;;;;5038775;28;20551;-67
2021/09/19 10:07:38;;;;;;;40.95;36.25;;;18.70;85.80;;;;;;5041281;28;20049;-68
2021/09/19 10:10:06;;;;;;;38.65;34.15;;;18.80;84.30;;;;;;5063591;28;20082;-68
2021/09/19 10:12:34;;;;;;;37.80;33.67;;;19.00;85.40;;;;;;5036340;28;20490;-68
2021/09/19 10:15:02;;;;;;;41.13;33.78;;;19.10;83.60;;;;;;5071468;28;20156;-67
2021/09/19 10:17:31;;;;;;;43.47;35.97;;;19.20;83.70;;;;;;5049367;28;20085;-67
2021/09/19 10:19:58;;;;;;;37.78;33.72;;;19.30;83.00;;;;;;5066434;28;20080;-66
2021/09/19 10:22:40;;;;;;;41.88;35.63;;;19.30;84.90;;;;;;5066166;28;20048;-66
2021/09/19 10:25:09;;;;;;;43.22;37.20;;;19.40;82.80;;;;;;5063030;28;20037;-66
2021/09/19 10:27:36;;;;;;;39.45;35.20;;;19.50;82.70;;;;;;5049913;28;20130;-67
2021/09/19 10:30:06;;;;;;;40.63;34.42;;;19.50;82.70;;;;;;5072617;28;20132;-66
2021/09/19 10:32:39;;;;;;;40.88;35.63;;;19.70;82.30;;;;;;5040522;28;20048;-67
2021/09/19 10:35:15;;;;;;;41.70;37.22;;;19.80;81.50;;;;;;5046021;28;20177;-66
2021/09/19 10:38:00;;;;;;;42.72;34.13;;;19.80;81.30;;;;;;5074717;28;20055;-66
2021/09/19 10:40:38;;;;;;;44.80;37.17;;;19.90;81.10;;;;;;5044030;28;20040;-66
2021/09/19 10:43:21;;;;;;;40.95;36.60;;;20.00;80.40;;;;;;5060691;28;20734;-67
2021/09/19 10:45:52;;;;;;;171.23;152.30;;;20.20;82.40;;;;;;5041471;28;20456;-66
2021/09/19 10:48:27;;;;;;;45.30;38.05;;;20.30;82.10;;;;;;5057891;28;20218;-67
2021/09/19 10:51:06;;;;;;;39.97;34.00;;;20.50;80.60;;;;;;5059758;28;20574;-67
2021/09/19 10:53:45;;;;;;;35.80;31.90;;;20.60;78.40;;;;;;5060144;28;20083;-67
2021/09/19 10:56:12;;;;;;;;;;;20.70;77.50;;;;;;5058965;28;20048;-67
2021/09/19 10:58:45;;;;;;;38.15;33.40;;;20.80;77.40;;;;;;5054077;28;19928;-67
2021/09/19 11:01:16;;;;;;;40.88;36.40;;;21.00;79.30;;;;;;5060829;28;20044;-67
2021/09/19 11:04:04;;;;;;;39.97;32.85;;;21.10;80.20;;;;;;5037825;28;20041;-68
2021/09/19 11:06:34;;;;;;;44.50;36.47;;;21.20;78.20;;;;;;5059096;28;20470;-67
2021/09/19 11:09:20;;;;;;;40.83;35.10;;;21.30;77.80;;;;;;5033638;28;20154;-68
2021/09/19 11:12:12;;;;;;;43.65;36.92;;;21.40;76.50;;;;;;5063658;28;20138;-68
2021/09/19 11:14:59;;;;;;;43.83;38.53;;;21.40;74.30;;;;;;5067894;28;20420;-68
2021/09/19 11:17:27;;;;;;;46.10;38.08;;;21.50;76.40;;;;;;5052337;28;20123;-68
2021/09/19 11:20:10;;;;;;;42.00;37.35;;;21.60;75.50;;;;;;5037364;28;20094;-68
2021/09/19 11:22:40;;;;;;;38.17;34.03;;;21.70;74.50;;;;;;5056900;28;20040;-68
2021/09/19 11:25:07;;;;;;;37.67;31.90;;;21.80;72.60;;;;;;5071450;28;20463;-67
2021/09/19 11:27:34;;;;;;;41.15;36.33;;;21.70;72.20;;;;;;5055678;28;20081;-66
2021/09/19 11:30:02;;;;;;;46.05;39.67;;;21.60;73.40;;;;;;5048681;28;20629;-67
2021/09/19 11:32:31;;;;;;;;;;;21.70;76.50;;;;;;5066705;28;20060;-68
2021/09/19 11:34:58;;;;;;;38.63;32.95;;;21.80;74.30;;;;;;5071257;28;19920;-68
2021/09/19 11:37:26;;;;;;;44.97;36.20;;;21.80;74.30;;;;;;5040917;28;20053;-68
2021/09/19 11:39:53;;;;;;;39.65;31.23;;;21.90;74.00;;;;;;5055064;28;20131;-67
2021/09/19 11:42:20;;;;;;;30.48;27.17;;;21.90;74.60;;;;;;5070623;28;20467;-68
2021/09/19 11:44:49;;;;;;;28.88;25.75;;;22.00;70.90;;;;;;5063534;28;20399;-67
2021/09/19 11:47:17;;;;;;;35.55;28.73;;;22.00;72.70;;;;;;5059184;28;20151;-67
2021/09/19 11:49:44;;;;;;;31.65;27.67;;;22.00;73.80;;;;;;5046423;28;20044;-67
2021/09/19 11:52:11;;;;;;;31.10;27.83;;;22.00;73.40;;;;;;5055849;28;20135;-67
2021/09/19 11:54:42;;;;;;;33.92;28.83;;;22.00;73.20;;;;;;5071265;28;20106;-67
2021/09/19 11:57:10;;;;;;;35.03;31.20;;;22.10;73.00;;;;;;5072259;28;20101;-67
2021/09/19 11:59:41;;;;;;;35.10;31.27;;;22.10;72.70;;;;;;5073292;28;20058;-67
2021/09/19 12:02:09;;;;;;;27.30;24.52;;;22.20;73.60;;;;;;5060203;28;20045;-67
2021/09/19 12:04:36;;;;;;;22.90;20.45;;;22.20;73.70;;;;;;5057241;28;20049;-65
2021/09/19 12:07:03;;;;;;;16.80;15.02;;;22.10;73.80;;;;;;5053689;28;20078;-65
2021/09/19 12:09:31;;;;;;;14.05;12.55;;;22.10;74.30;;;;;;5061522;28;20496;-70
2021/09/19 12:11:58;;;;;;;14.75;11.02;;;21.90;74.00;;;;;;5062608;28;20048;-65
2021/09/19 12:14:29;;;;;;;12.35;10.93;;;21.70;74.80;;;;;;5068485;28;20048;-67
2021/09/19 12:17:00;;;;;;;12.90;9.75;;;21.60;74.70;;;;;;5039810;28;20127;-64
2021/09/19 12:19:27;;;;;;;11.98;8.77;;;21.40;75.50;;;;;;5062791;28;20409;-69
2021/09/19 12:22:04;;;;;;;10.50;9.43;;;21.30;76.80;;;;;;5076437;28;20056;-64
2021/09/19 12:24:32;;;;;;;10.05;8.98;;;21.20;76.90;;;;;;5062068;28;20056;-65
2021/09/19 12:27:41;;;;;;;9.83;8.83;;;21.10;77.70;;;;;;5058774;28;20052;-65
2021/09/19 12:30:13;;;;;;;12.93;8.73;;;21.00;78.60;;;;;;5051939;28;20291;-64
2021/09/19 12:32:51;;;;;;;12.52;10.77;;;20.90;78.70;;;;;;5063983;28;20180;-64
2021/09/19 12:35:25;;;;;;;12.85;11.20;;;20.70;79.00;;;;;;5070694;28;20083;-65
2021/09/19 12:37:52;;;;;;;31.73;28.35;;;20.50;79.90;;;;;;5078424;28;20067;-62
2021/09/19 12:40:20;;;;;;;27.85;24.38;;;20.40;80.30;;;;;;5067349;28;20070;-62
2021/09/19 12:42:48;;;;;;;13.75;11.30;;;20.30;81.20;;;;;;5056734;28;20068;-65
2021/09/19 12:45:17;;;;;;;13.02;11.73;;;20.30;81.60;;;;;;5071053;28;20051;-64